Pagina principală
METAR-TAF:

METAR-TAF

Aeroporturi :

Pescara, Italia

Latitudine: 42-26N, longitudine: 014-12E, elevație: 10 m

Observații meteo curente

Raportul a fost făcut în urmă cu 18 de minute, la 10:50 UTC
Vânt 8 kt de la Nord-est
Temperatură 35°C
Umiditate 30%
Presiune 1014 hPa
Vizibilitate de 10 km sau mai mult
nu există nori sub 1.500 m și nici cumulonimbus

METAR: LIBP 171050Z 04008KT CAVOK 35/15 Q1014

Ora: 13:08 (11:08 UTC)

Prognoză

Raportul a fost făcut în urmă cu 6 ore și 8 de minute, la 05:00 UTC
Prognoză valabilă de la 17 ora 06 UTC la 18 ora 06 UTC
Vânt 5 kt de la Sud-vest
Vizibilitate de 10 km sau mai mult
nu există nori sub 1.500 m și nici cumulonimbus
Devenind
de la 17 ora 08 UTC la 17 ora 10 UTC
Vânt 10 kt de la Nord-est
Devenind
de la 17 ora 16 UTC la 17 ora 18 UTC
Vânt 5 kt din direcții variabile

TAF: LIBP 170500Z 1706/1806 22005KT CAVOK BECMG 1708/1710 05010KT BECMG 1716/1718 VRB05KT

Observații și prognoze meteo pentru peste 4.000 de aeroporturi (rapoarte METAR și TAF).

Stațiile disponibile sunt reprezentate pe hartă prin puncte galbene și roșii.

Țineți indicatorul mouse-ului pe punctul dorit pentru a vedea denumirea stației.

Apoi, faceți clic pentru a vedea observațiile și prognozele meteorologice.

Pentru a schimba harta: Pentru mărire, faceți clic pe butoanele verzi cu cruce neagră; pentru micșorare, pe butonul verde cu o liniuță; pentru hărți învecinate, pe săgețile verzi.


METAR-TAF: